sensor_id;sensor_type;location;lat;lon;timestamp;P1;durP1;ratioP1;P2;durP2;ratioP2
15228;SDS011;7717;47.792;12.076;2023-09-19T00:01:58;2.43;;;1.00;;
15228;SDS011;7717;47.792;12.076;2023-09-19T00:04:24;1.23;;;0.90;;
15228;SDS011;7717;47.792;12.076;2023-09-19T00:06:54;2.20;;;0.83;;
15228;SDS011;7717;47.792;12.076;2023-09-19T00:09:19;0.90;;;0.90;;
15228;SDS011;7717;47.792;12.076;2023-09-19T00:11:44;0.90;;;0.77;;
15228;SDS011;7717;47.792;12.076;2023-09-19T00:14:09;1.07;;;0.87;;
15228;SDS011;7717;47.792;12.076;2023-09-19T00:16:35;0.70;;;0.70;;
15228;SDS011;7717;47.792;12.076;2023-09-19T00:19:01;1.00;;;0.90;;
15228;SDS011;7717;47.792;12.076;2023-09-19T00:21:26;1.83;;;1.03;;
15228;SDS011;7717;47.792;12.076;2023-09-19T00:23:51;1.00;;;1.00;;
15228;SDS011;7717;47.792;12.076;2023-09-19T00:26:17;1.63;;;1.00;;
15228;SDS011;7717;47.792;12.076;2023-09-19T00:28:43;2.43;;;1.03;;
15228;SDS011;7717;47.792;12.076;2023-09-19T00:31:09;1.27;;;0.90;;
15228;SDS011;7717;47.792;12.076;2023-09-19T00:33:34;2.20;;;0.93;;
15228;SDS011;7717;47.792;12.076;2023-09-19T00:36:00;2.97;;;1.10;;
15228;SDS011;7717;47.792;12.076;2023-09-19T00:38:29;1.17;;;0.97;;
15228;SDS011;7717;47.792;12.076;2023-09-19T00:40:55;2.13;;;0.90;;
15228;SDS011;7717;47.792;12.076;2023-09-19T00:43:21;1.43;;;0.90;;
15228;SDS011;7717;47.792;12.076;2023-09-19T00:45:49;1.10;;;0.97;;
15228;SDS011;7717;47.792;12.076;2023-09-19T00:48:16;1.13;;;0.90;;
15228;SDS011;7717;47.792;12.076;2023-09-19T00:50:42;0.70;;;0.67;;
15228;SDS011;7717;47.792;12.076;2023-09-19T00:53:09;2.10;;;1.20;;
15228;SDS011;7717;47.792;12.076;2023-09-19T00:55:34;1.27;;;1.00;;
15228;SDS011;7717;47.792;12.076;2023-09-19T00:58:02;1.80;;;0.80;;
15228;SDS011;7717;47.792;12.076;2023-09-19T01:00:28;2.40;;;1.13;;
15228;SDS011;7717;47.792;12.076;2023-09-19T01:02:53;1.97;;;1.10;;
15228;SDS011;7717;47.792;12.076;2023-09-19T01:05:19;0.77;;;0.77;;
15228;SDS011;7717;47.792;12.076;2023-09-19T01:07:45;1.00;;;0.90;;
15228;SDS011;7717;47.792;12.076;2023-09-19T01:10:14;1.20;;;1.10;;
15228;SDS011;7717;47.792;12.076;2023-09-19T01:21:19;1.17;;;0.93;;
15228;SDS011;7717;47.792;12.076;2023-09-19T01:26:07;1.37;;;1.10;;
15228;SDS011;7717;47.792;12.076;2023-09-19T01:31:09;0.77;;;0.77;;
15228;SDS011;7717;47.792;12.076;2023-09-19T01:36:22;1.70;;;1.17;;
15228;SDS011;7717;47.792;12.076;2023-09-19T01:38:49;2.07;;;1.10;;
15228;SDS011;7717;47.792;12.076;2023-09-19T01:41:14;2.30;;;1.10;;
15228;SDS011;7717;47.792;12.076;2023-09-19T01:43:42;1.10;;;1.00;;
15228;SDS011;7717;47.792;12.076;2023-09-19T01:51:37;1.23;;;1.00;;
15228;SDS011;7717;47.792;12.076;2023-09-19T01:54:09;2.33;;;1.30;;
15228;SDS011;7717;47.792;12.076;2023-09-19T01:56:48;4.50;;;1.40;;
15228;SDS011;7717;47.792;12.076;2023-09-19T01:59:25;2.13;;;1.17;;
15228;SDS011;7717;47.792;12.076;2023-09-19T02:01:52;1.20;;;1.10;;
15228;SDS011;7717;47.792;12.076;2023-09-19T02:04:18;1.77;;;1.20;;
15228;SDS011;7717;47.792;12.076;2023-09-19T02:06:43;1.20;;;1.10;;
15228;SDS011;7717;47.792;12.076;2023-09-19T02:09:12;1.27;;;1.07;;
15228;SDS011;7717;47.792;12.076;2023-09-19T02:11:37;1.37;;;1.27;;
15228;SDS011;7717;47.792;12.076;2023-09-19T02:14:03;1.50;;;1.40;;
15228;SDS011;7717;47.792;12.076;2023-09-19T02:16:29;2.60;;;1.50;;
15228;SDS011;7717;47.792;12.076;2023-09-19T02:18:54;1.83;;;1.27;;
15228;SDS011;7717;47.792;12.076;2023-09-19T02:21:20;2.30;;;1.13;;
15228;SDS011;7717;47.792;12.076;2023-09-19T02:23:46;1.63;;;1.10;;
15228;SDS011;7717;47.792;12.076;2023-09-19T02:26:16;1.30;;;1.20;;
15228;SDS011;7717;47.792;12.076;2023-09-19T02:28:43;2.10;;;1.40;;
15228;SDS011;7717;47.792;12.076;2023-09-19T02:31:11;1.93;;;1.80;;
15228;SDS011;7717;47.792;12.076;2023-09-19T02:33:36;2.77;;;1.30;;
15228;SDS011;7717;47.792;12.076;2023-09-19T02:36:02;1.30;;;1.20;;
15228;SDS011;7717;47.792;12.076;2023-09-19T02:38:30;1.57;;;1.47;;
15228;SDS011;7717;47.792;12.076;2023-09-19T02:40:55;1.40;;;1.30;;
15228;SDS011;7717;47.792;12.076;2023-09-19T02:43:21;1.67;;;1.40;;
15228;SDS011;7717;47.792;12.076;2023-09-19T02:45:47;2.63;;;1.47;;
15228;SDS011;7717;47.792;12.076;2023-09-19T02:48:14;1.83;;;1.67;;
15228;SDS011;7717;47.792;12.076;2023-09-19T02:50:40;1.63;;;1.53;;
15228;SDS011;7717;47.792;12.076;2023-09-19T02:53:05;2.03;;;1.90;;
15228;SDS011;7717;47.792;12.076;2023-09-19T02:55:31;3.10;;;1.70;;
15228;SDS011;7717;47.792;12.076;2023-09-19T02:57:57;2.90;;;1.90;;
15228;SDS011;7717;47.792;12.076;2023-09-19T03:00:22;3.70;;;2.17;;
15228;SDS011;7717;47.792;12.076;2023-09-19T03:02:48;2.00;;;1.90;;
15228;SDS011;7717;47.792;12.076;2023-09-19T03:05:13;2.30;;;2.10;;
15228;SDS011;7717;47.792;12.076;2023-09-19T03:07:39;2.00;;;1.60;;
15228;SDS011;7717;47.792;12.076;2023-09-19T03:10:07;6.67;;;4.50;;
15228;SDS011;7717;47.792;12.076;2023-09-19T03:12:33;2.17;;;1.80;;
15228;SDS011;7717;47.792;12.076;2023-09-19T03:14:59;1.90;;;1.80;;
15228;SDS011;7717;47.792;12.076;2023-09-19T03:17:24;2.17;;;1.97;;
15228;SDS011;7717;47.792;12.076;2023-09-19T03:19:50;2.30;;;1.40;;
15228;SDS011;7717;47.792;12.076;2023-09-19T03:22:15;1.63;;;1.53;;
15228;SDS011;7717;47.792;12.076;2023-09-19T03:24:41;2.00;;;1.80;;
15228;SDS011;7717;47.792;12.076;2023-09-19T03:27:08;1.77;;;1.67;;
15228;SDS011;7717;47.792;12.076;2023-09-19T03:29:34;1.80;;;1.70;;
15228;SDS011;7717;47.792;12.076;2023-09-19T03:32:00;3.40;;;1.50;;
15228;SDS011;7717;47.792;12.076;2023-09-19T03:34:25;1.60;;;1.50;;
15228;SDS011;7717;47.792;12.076;2023-09-19T03:36:50;1.70;;;1.53;;
15228;SDS011;7717;47.792;12.076;2023-09-19T03:39:16;1.53;;;1.40;;
15228;SDS011;7717;47.792;12.076;2023-09-19T03:41:41;4.03;;;1.60;;
15228;SDS011;7717;47.792;12.076;2023-09-19T03:44:06;2.60;;;1.43;;
15228;SDS011;7717;47.792;12.076;2023-09-19T03:46:32;1.50;;;1.37;;
15228;SDS011;7717;47.792;12.076;2023-09-19T03:48:57;2.17;;;1.37;;
15228;SDS011;7717;47.792;12.076;2023-09-19T03:51:22;2.03;;;1.50;;
15228;SDS011;7717;47.792;12.076;2023-09-19T03:53:48;1.93;;;1.40;;
15228;SDS011;7717;47.792;12.076;2023-09-19T03:56:15;1.90;;;1.47;;
15228;SDS011;7717;47.792;12.076;2023-09-19T03:58:40;3.00;;;1.63;;
15228;SDS011;7717;47.792;12.076;2023-09-19T04:01:05;1.83;;;1.60;;
15228;SDS011;7717;47.792;12.076;2023-09-19T04:03:32;1.60;;;1.50;;
15228;SDS011;7717;47.792;12.076;2023-09-19T04:06:11;1.80;;;1.70;;
15228;SDS011;7717;47.792;12.076;2023-09-19T04:08:36;1.60;;;1.30;;
15228;SDS011;7717;47.792;12.076;2023-09-19T04:11:02;2.07;;;1.40;;
15228;SDS011;7717;47.792;12.076;2023-09-19T04:13:28;2.23;;;1.87;;
15228;SDS011;7717;47.792;12.076;2023-09-19T04:15:53;1.80;;;1.70;;
15228;SDS011;7717;47.792;12.076;2023-09-19T04:18:18;2.10;;;1.90;;
15228;SDS011;7717;47.792;12.076;2023-09-19T04:20:49;3.20;;;1.80;;
15228;SDS011;7717;47.792;12.076;2023-09-19T04:23:14;1.90;;;1.80;;
15228;SDS011;7717;47.792;12.076;2023-09-19T04:25:40;3.67;;;3.00;;
15228;SDS011;7717;47.792;12.076;2023-09-19T04:28:05;1.97;;;1.80;;
15228;SDS011;7717;47.792;12.076;2023-09-19T04:30:31;2.13;;;1.93;;
15228;SDS011;7717;47.792;12.076;2023-09-19T04:33:03;3.00;;;1.93;;
15228;SDS011;7717;47.792;12.076;2023-09-19T04:35:30;1.90;;;1.80;;
15228;SDS011;7717;47.792;12.076;2023-09-19T04:37:56;2.23;;;1.80;;
15228;SDS011;7717;47.792;12.076;2023-09-19T04:40:21;2.63;;;2.00;;
15228;SDS011;7717;47.792;12.076;2023-09-19T04:42:54;2.37;;;1.90;;
15228;SDS011;7717;47.792;12.076;2023-09-19T04:45:21;2.10;;;1.90;;
15228;SDS011;7717;47.792;12.076;2023-09-19T04:47:47;8.20;;;5.10;;
15228;SDS011;7717;47.792;12.076;2023-09-19T04:50:12;7.03;;;4.57;;
15228;SDS011;7717;47.792;12.076;2023-09-19T04:52:42;2.00;;;1.90;;
15228;SDS011;7717;47.792;12.076;2023-09-19T04:55:15;3.73;;;2.63;;
15228;SDS011;7717;47.792;12.076;2023-09-19T05:00:10;2.77;;;2.10;;
15228;SDS011;7717;47.792;12.076;2023-09-19T05:02:38;2.03;;;1.40;;
15228;SDS011;7717;47.792;12.076;2023-09-19T05:05:05;3.07;;;1.90;;
15228;SDS011;7717;47.792;12.076;2023-09-19T05:07:31;2.50;;;1.60;;
15228;SDS011;7717;47.792;12.076;2023-09-19T05:09:56;1.90;;;1.60;;
15228;SDS011;7717;47.792;12.076;2023-09-19T05:12:21;2.03;;;1.80;;
15228;SDS011;7717;47.792;12.076;2023-09-19T05:14:47;7.47;;;5.20;;
15228;SDS011;7717;47.792;12.076;2023-09-19T05:17:13;4.73;;;3.00;;
15228;SDS011;7717;47.792;12.076;2023-09-19T05:19:38;4.53;;;1.83;;
15228;SDS011;7717;47.792;12.076;2023-09-19T05:22:04;2.40;;;1.60;;
15228;SDS011;7717;47.792;12.076;2023-09-19T05:24:29;2.07;;;1.90;;
15228;SDS011;7717;47.792;12.076;2023-09-19T05:26:55;3.57;;;1.67;;
15228;SDS011;7717;47.792;12.076;2023-09-19T05:29:22;1.83;;;1.47;;
15228;SDS011;7717;47.792;12.076;2023-09-19T05:31:47;2.17;;;1.30;;
15228;SDS011;7717;47.792;12.076;2023-09-19T05:34:15;1.60;;;1.50;;
15228;SDS011;7717;47.792;12.076;2023-09-19T05:36:41;1.70;;;1.60;;
15228;SDS011;7717;47.792;12.076;2023-09-19T05:39:06;2.40;;;1.57;;
15228;SDS011;7717;47.792;12.076;2023-09-19T05:41:34;1.93;;;1.67;;
15228;SDS011;7717;47.792;12.076;2023-09-19T05:44:01;1.47;;;1.37;;
15228;SDS011;7717;47.792;12.076;2023-09-19T05:46:27;1.80;;;1.70;;
15228;SDS011;7717;47.792;12.076;2023-09-19T05:48:54;1.43;;;1.33;;
15228;SDS011;7717;47.792;12.076;2023-09-19T05:51:21;1.70;;;1.60;;
15228;SDS011;7717;47.792;12.076;2023-09-19T05:53:47;2.20;;;2.00;;
15228;SDS011;7717;47.792;12.076;2023-09-19T05:56:14;1.40;;;1.30;;
15228;SDS011;7717;47.792;12.076;2023-09-19T05:58:39;1.80;;;1.70;;
15228;SDS011;7717;47.792;12.076;2023-09-19T06:01:08;2.20;;;1.50;;
15228;SDS011;7717;47.792;12.076;2023-09-19T06:03:34;2.20;;;1.80;;
15228;SDS011;7717;47.792;12.076;2023-09-19T06:06:00;1.63;;;1.53;;
15228;SDS011;7717;47.792;12.076;2023-09-19T06:08:25;2.67;;;1.67;;
15228;SDS011;7717;47.792;12.076;2023-09-19T06:10:51;2.07;;;1.73;;
15228;SDS011;7717;47.792;12.076;2023-09-19T06:13:17;3.33;;;1.90;;
15228;SDS011;7717;47.792;12.076;2023-09-19T06:15:46;3.13;;;1.83;;
15228;SDS011;7717;47.792;12.076;2023-09-19T06:18:12;2.83;;;1.60;;
15228;SDS011;7717;47.792;12.076;2023-09-19T06:20:44;2.03;;;1.83;;
15228;SDS011;7717;47.792;12.076;2023-09-19T06:23:10;3.93;;;1.77;;
15228;SDS011;7717;47.792;12.076;2023-09-19T06:25:35;1.50;;;1.30;;
15228;SDS011;7717;47.792;12.076;2023-09-19T06:28:00;1.33;;;1.10;;
15228;SDS011;7717;47.792;12.076;2023-09-19T06:30:29;1.57;;;1.47;;
15228;SDS011;7717;47.792;12.076;2023-09-19T06:32:56;1.60;;;1.40;;
15228;SDS011;7717;47.792;12.076;2023-09-19T06:35:21;1.67;;;1.50;;
15228;SDS011;7717;47.792;12.076;2023-09-19T06:37:46;1.53;;;1.40;;
15228;SDS011;7717;47.792;12.076;2023-09-19T06:40:13;1.97;;;1.70;;
15228;SDS011;7717;47.792;12.076;2023-09-19T06:42:45;1.60;;;1.50;;
15228;SDS011;7717;47.792;12.076;2023-09-19T06:45:14;1.33;;;1.23;;
15228;SDS011;7717;47.792;12.076;2023-09-19T06:47:43;1.50;;;1.40;;
15228;SDS011;7717;47.792;12.076;2023-09-19T06:50:11;1.27;;;1.17;;
15228;SDS011;7717;47.792;12.076;2023-09-19T06:52:42;1.43;;;1.33;;
15228;SDS011;7717;47.792;12.076;2023-09-19T06:55:07;4.07;;;1.80;;
15228;SDS011;7717;47.792;12.076;2023-09-19T06:57:34;1.60;;;1.50;;
15228;SDS011;7717;47.792;12.076;2023-09-19T06:59:59;2.40;;;1.43;;
15228;SDS011;7717;47.792;12.076;2023-09-19T07:02:26;1.40;;;1.30;;
15228;SDS011;7717;47.792;12.076;2023-09-19T07:04:51;2.27;;;1.30;;
15228;SDS011;7717;47.792;12.076;2023-09-19T07:07:16;1.20;;;1.10;;
15228;SDS011;7717;47.792;12.076;2023-09-19T07:09:42;1.80;;;1.23;;
15228;SDS011;7717;47.792;12.076;2023-09-19T07:12:07;1.40;;;1.10;;
15228;SDS011;7717;47.792;12.076;2023-09-19T07:14:32;1.57;;;1.20;;
15228;SDS011;7717;47.792;12.076;2023-09-19T07:16:58;1.30;;;1.07;;
15228;SDS011;7717;47.792;12.076;2023-09-19T07:19:25;1.17;;;1.03;;
15228;SDS011;7717;47.792;12.076;2023-09-19T07:21:53;2.10;;;1.07;;
15228;SDS011;7717;47.792;12.076;2023-09-19T07:24:18;1.40;;;1.17;;
15228;SDS011;7717;47.792;12.076;2023-09-19T07:26:45;1.30;;;1.20;;
15228;SDS011;7717;47.792;12.076;2023-09-19T07:29:10;1.30;;;1.20;;
15228;SDS011;7717;47.792;12.076;2023-09-19T07:31:35;0.90;;;0.90;;
15228;SDS011;7717;47.792;12.076;2023-09-19T07:34:00;1.30;;;1.20;;
15228;SDS011;7717;47.792;12.076;2023-09-19T07:36:28;1.53;;;1.20;;
15228;SDS011;7717;47.792;12.076;2023-09-19T07:38:54;1.40;;;0.83;;
15228;SDS011;7717;47.792;12.076;2023-09-19T07:41:20;1.30;;;1.20;;
15228;SDS011;7717;47.792;12.076;2023-09-19T07:43:47;1.00;;;0.90;;
15228;SDS011;7717;47.792;12.076;2023-09-19T07:46:12;1.00;;;0.90;;
15228;SDS011;7717;47.792;12.076;2023-09-19T07:48:38;2.80;;;1.40;;
15228;SDS011;7717;47.792;12.076;2023-09-19T07:51:07;1.47;;;0.90;;
15228;SDS011;7717;47.792;12.076;2023-09-19T07:53:33;1.53;;;1.20;;
15228;SDS011;7717;47.792;12.076;2023-09-19T07:56:06;1.20;;;1.10;;
15228;SDS011;7717;47.792;12.076;2023-09-19T07:58:32;2.80;;;1.07;;
15228;SDS011;7717;47.792;12.076;2023-09-19T08:01:08;1.20;;;0.90;;
15228;SDS011;7717;47.792;12.076;2023-09-19T08:03:37;1.43;;;1.07;;
15228;SDS011;7717;47.792;12.076;2023-09-19T08:06:06;3.67;;;1.23;;
15228;SDS011;7717;47.792;12.076;2023-09-19T08:08:31;1.50;;;1.00;;
15228;SDS011;7717;47.792;12.076;2023-09-19T08:10:57;2.70;;;1.00;;
15228;SDS011;7717;47.792;12.076;2023-09-19T08:13:22;1.20;;;1.10;;
15228;SDS011;7717;47.792;12.076;2023-09-19T08:15:48;1.00;;;0.90;;
15228;SDS011;7717;47.792;12.076;2023-09-19T08:18:16;1.07;;;1.00;;
15228;SDS011;7717;47.792;12.076;2023-09-19T08:20:42;1.37;;;1.20;;
15228;SDS011;7717;47.792;12.076;2023-09-19T08:23:07;1.10;;;1.00;;
15228;SDS011;7717;47.792;12.076;2023-09-19T08:25:33;0.93;;;0.93;;
15228;SDS011;7717;47.792;12.076;2023-09-19T08:27:59;1.17;;;1.07;;
15228;SDS011;7717;47.792;12.076;2023-09-19T08:30:27;2.27;;;1.20;;
15228;SDS011;7717;47.792;12.076;2023-09-19T08:32:59;1.20;;;1.00;;
15228;SDS011;7717;47.792;12.076;2023-09-19T08:35:24;1.57;;;1.10;;
15228;SDS011;7717;47.792;12.076;2023-09-19T08:37:49;1.17;;;1.00;;
15228;SDS011;7717;47.792;12.076;2023-09-19T08:40:21;2.93;;;1.50;;
15228;SDS011;7717;47.792;12.076;2023-09-19T08:42:47;1.40;;;1.30;;
15228;SDS011;7717;47.792;12.076;2023-09-19T08:45:13;1.27;;;0.93;;
15228;SDS011;7717;47.792;12.076;2023-09-19T08:47:40;1.30;;;1.20;;
15228;SDS011;7717;47.792;12.076;2023-09-19T08:52:42;1.73;;;1.17;;
15228;SDS011;7717;47.792;12.076;2023-09-19T08:55:07;3.33;;;1.00;;
15228;SDS011;7717;47.792;12.076;2023-09-19T08:57:36;0.87;;;0.87;;
15228;SDS011;7717;47.792;12.076;2023-09-19T09:00:07;1.75;;;1.10;;
15228;SDS011;7717;47.792;12.076;2023-09-19T09:02:39;0.80;;;0.80;;
15228;SDS011;7717;47.792;12.076;2023-09-19T09:05:07;1.25;;;1.15;;
15228;SDS011;7717;47.792;12.076;2023-09-19T09:07:32;1.02;;;0.90;;
15228;SDS011;7717;47.792;12.076;2023-09-19T09:09:59;1.30;;;0.90;;
15228;SDS011;7717;47.792;12.076;2023-09-19T09:12:25;1.63;;;0.90;;
15228;SDS011;7717;47.792;12.076;2023-09-19T09:14:50;1.27;;;0.63;;
15228;SDS011;7717;47.792;12.076;2023-09-19T09:17:17;1.08;;;0.65;;
15228;SDS011;7717;47.792;12.076;2023-09-19T09:19:45;0.90;;;0.90;;
15228;SDS011;7717;47.792;12.076;2023-09-19T09:22:10;0.77;;;0.77;;
15228;SDS011;7717;47.792;12.076;2023-09-19T09:24:36;1.90;;;0.88;;
15228;SDS011;7717;47.792;12.076;2023-09-19T09:27:04;1.73;;;1.20;;
15228;SDS011;7717;47.792;12.076;2023-09-19T09:29:44;2.25;;;0.95;;
15228;SDS011;7717;47.792;12.076;2023-09-19T09:34:53;1.40;;;0.95;;
15228;SDS011;7717;47.792;12.076;2023-09-19T09:37:19;1.17;;;1.00;;
15228;SDS011;7717;47.792;12.076;2023-09-19T09:39:58;1.08;;;0.80;;
15228;SDS011;7717;47.792;12.076;2023-09-19T09:42:36;0.75;;;0.73;;
15228;SDS011;7717;47.792;12.076;2023-09-19T09:45:14;1.30;;;1.20;;
15228;SDS011;7717;47.792;12.076;2023-09-19T09:47:48;1.63;;;0.93;;
15228;SDS011;7717;47.792;12.076;2023-09-19T09:50:23;0.80;;;0.80;;
15228;SDS011;7717;47.792;12.076;2023-09-19T09:52:54;1.42;;;0.88;;
15228;SDS011;7717;47.792;12.076;2023-09-19T09:55:25;0.98;;;0.90;;
15228;SDS011;7717;47.792;12.076;2023-09-19T09:57:59;1.27;;;1.17;;
15228;SDS011;7717;47.792;12.076;2023-09-19T10:00:42;2.10;;;1.00;;
15228;SDS011;7717;47.792;12.076;2023-09-19T10:03:20;1.08;;;1.00;;
15228;SDS011;7717;47.792;12.076;2023-09-19T10:05:53;1.95;;;0.98;;
15228;SDS011;7717;47.792;12.076;2023-09-19T10:08:20;1.40;;;0.93;;
15228;SDS011;7717;47.792;12.076;2023-09-19T10:10:46;1.05;;;1.00;;
15228;SDS011;7717;47.792;12.076;2023-09-19T10:13:29;0.80;;;0.80;;
15228;SDS011;7717;47.792;12.076;2023-09-19T10:15:55;1.02;;;0.93;;
15228;SDS011;7717;47.792;12.076;2023-09-19T10:18:22;1.30;;;0.93;;
15228;SDS011;7717;47.792;12.076;2023-09-19T10:20:48;0.82;;;0.80;;
15228;SDS011;7717;47.792;12.076;2023-09-19T10:23:15;1.02;;;0.90;;
15228;SDS011;7717;47.792;12.076;2023-09-19T10:25:47;1.40;;;1.00;;
15228;SDS011;7717;47.792;12.076;2023-09-19T10:28:13;1.52;;;1.00;;
15228;SDS011;7717;47.792;12.076;2023-09-19T10:30:43;1.33;;;1.10;;
15228;SDS011;7717;47.792;12.076;2023-09-19T10:33:18;1.08;;;1.08;;
15228;SDS011;7717;47.792;12.076;2023-09-19T10:35:48;1.58;;;1.17;;
15228;SDS011;7717;47.792;12.076;2023-09-19T10:38:14;1.23;;;1.08;;
15228;SDS011;7717;47.792;12.076;2023-09-19T10:40:40;1.50;;;1.20;;
15228;SDS011;7717;47.792;12.076;2023-09-19T10:43:13;2.05;;;1.15;;
15228;SDS011;7717;47.792;12.076;2023-09-19T10:45:47;1.00;;;1.00;;
15228;SDS011;7717;47.792;12.076;2023-09-19T10:48:19;1.27;;;1.13;;
15228;SDS011;7717;47.792;12.076;2023-09-19T10:50:46;1.58;;;0.98;;
15228;SDS011;7717;47.792;12.076;2023-09-19T10:53:14;1.85;;;1.40;;
15228;SDS011;7717;47.792;12.076;2023-09-19T10:55:40;2.00;;;1.05;;
15228;SDS011;7717;47.792;12.076;2023-09-19T10:58:06;0.75;;;0.75;;
15228;SDS011;7717;47.792;12.076;2023-09-19T11:00:54;1.02;;;0.93;;
15228;SDS011;7717;47.792;12.076;2023-09-19T11:03:20;1.00;;;0.75;;
15228;SDS011;7717;47.792;12.076;2023-09-19T11:15:04;0.80;;;0.80;;
15228;SDS011;7717;47.792;12.076;2023-09-19T11:22:14;1.05;;;0.60;;
15228;SDS011;7717;47.792;12.076;2023-09-19T11:24:39;1.20;;;0.70;;
15228;SDS011;7717;47.792;12.076;2023-09-19T11:27:11;0.52;;;0.50;;
15228;SDS011;7717;47.792;12.076;2023-09-19T11:29:39;1.58;;;0.82;;
15228;SDS011;7717;47.792;12.076;2023-09-19T11:32:05;0.50;;;0.50;;
15228;SDS011;7717;47.792;12.076;2023-09-19T11:39:40;0.60;;;0.60;;
15228;SDS011;7717;47.792;12.076;2023-09-19T11:44:52;0.52;;;0.45;;
15228;SDS011;7717;47.792;12.076;2023-09-19T11:47:21;0.70;;;0.70;;
15228;SDS011;7717;47.792;12.076;2023-09-19T11:49:47;0.50;;;0.50;;
15228;SDS011;7717;47.792;12.076;2023-09-19T11:52:18;0.90;;;0.50;;
15228;SDS011;7717;47.792;12.076;2023-09-19T11:54:47;0.50;;;0.50;;
15228;SDS011;7717;47.792;12.076;2023-09-19T11:57:20;0.88;;;0.70;;
15228;SDS011;7717;47.792;12.076;2023-09-19T11:59:45;0.40;;;0.40;;
15228;SDS011;7717;47.792;12.076;2023-09-19T12:02:13;1.10;;;1.10;;
15228;SDS011;7717;47.792;12.076;2023-09-19T12:04:40;1.00;;;0.68;;
15228;SDS011;7717;47.792;12.076;2023-09-19T12:07:13;1.38;;;0.57;;
15228;SDS011;7717;47.792;12.076;2023-09-19T12:09:42;0.70;;;0.70;;
15228;SDS011;7717;47.792;12.076;2023-09-19T12:12:09;1.58;;;0.60;;
15228;SDS011;7717;47.792;12.076;2023-09-19T12:14:34;0.95;;;0.70;;
15228;SDS011;7717;47.792;12.076;2023-09-19T12:17:00;0.52;;;0.45;;
15228;SDS011;7717;47.792;12.076;2023-09-19T12:19:27;0.95;;;0.60;;
15228;SDS011;7717;47.792;12.076;2023-09-19T12:21:57;1.23;;;0.60;;
15228;SDS011;7717;47.792;12.076;2023-09-19T12:24:23;0.60;;;0.60;;
15228;SDS011;7717;47.792;12.076;2023-09-19T12:26:51;2.03;;;0.45;;
15228;SDS011;7717;47.792;12.076;2023-09-19T12:29:21;1.20;;;1.00;;
15228;SDS011;7717;47.792;12.076;2023-09-19T12:31:53;0.88;;;0.77;;
15228;SDS011;7717;47.792;12.076;2023-09-19T12:34:20;0.60;;;0.60;;
15228;SDS011;7717;47.792;12.076;2023-09-19T12:36:47;1.83;;;0.63;;
15228;SDS011;7717;47.792;12.076;2023-09-19T12:39:25;1.00;;;0.68;;
15228;SDS011;7717;47.792;12.076;2023-09-19T12:41:51;0.80;;;0.50;;
15228;SDS011;7717;47.792;12.076;2023-09-19T12:44:18;0.50;;;0.50;;
15228;SDS011;7717;47.792;12.076;2023-09-19T12:46:44;0.60;;;0.60;;
15228;SDS011;7717;47.792;12.076;2023-09-19T12:49:19;0.68;;;0.68;;
15228;SDS011;7717;47.792;12.076;2023-09-19T12:51:45;0.75;;;0.70;;
15228;SDS011;7717;47.792;12.076;2023-09-19T12:54:11;0.47;;;0.47;;
15228;SDS011;7717;47.792;12.076;2023-09-19T12:56:40;1.10;;;1.00;;
15228;SDS011;7717;47.792;12.076;2023-09-19T12:59:10;0.70;;;0.70;;
15228;SDS011;7717;47.792;12.076;2023-09-19T13:01:38;0.80;;;0.65;;
15228;SDS011;7717;47.792;12.076;2023-09-19T13:04:18;0.50;;;0.50;;
15228;SDS011;7717;47.792;12.076;2023-09-19T13:06:47;0.50;;;0.50;;
15228;SDS011;7717;47.792;12.076;2023-09-19T13:09:16;0.85;;;0.38;;
15228;SDS011;7717;47.792;12.076;2023-09-19T13:11:42;0.60;;;0.60;;
15228;SDS011;7717;47.792;12.076;2023-09-19T13:14:22;1.30;;;1.17;;
15228;SDS011;7717;47.792;12.076;2023-09-19T13:19:40;1.13;;;0.47;;
15228;SDS011;7717;47.792;12.076;2023-09-19T13:24:50;0.68;;;0.60;;
15228;SDS011;7717;47.792;12.076;2023-09-19T13:27:16;0.60;;;0.55;;
15228;SDS011;7717;47.792;12.076;2023-09-19T13:29:41;0.60;;;0.60;;
15228;SDS011;7717;47.792;12.076;2023-09-19T13:32:07;1.02;;;0.47;;
15228;SDS011;7717;47.792;12.076;2023-09-19T13:34:36;0.57;;;0.50;;
15228;SDS011;7717;47.792;12.076;2023-09-19T13:37:03;0.55;;;0.55;;
15228;SDS011;7717;47.792;12.076;2023-09-19T13:39:30;0.50;;;0.50;;
15228;SDS011;7717;47.792;12.076;2023-09-19T13:41:55;0.50;;;0.43;;
15228;SDS011;7717;47.792;12.076;2023-09-19T13:44:20;2.60;;;0.75;;
15228;SDS011;7717;47.792;12.076;2023-09-19T13:46:45;0.75;;;0.50;;
15228;SDS011;7717;47.792;12.076;2023-09-19T13:49:11;0.52;;;0.40;;
15228;SDS011;7717;47.792;12.076;2023-09-19T13:51:36;1.25;;;0.43;;
15228;SDS011;7717;47.792;12.076;2023-09-19T13:54:02;0.43;;;0.43;;
15228;SDS011;7717;47.792;12.076;2023-09-19T13:56:27;2.35;;;1.42;;
15228;SDS011;7717;47.792;12.076;2023-09-19T13:58:57;2.42;;;0.55;;
15228;SDS011;7717;47.792;12.076;2023-09-19T14:01:22;1.02;;;0.77;;
15228;SDS011;7717;47.792;12.076;2023-09-19T14:03:47;1.95;;;0.50;;
15228;SDS011;7717;47.792;12.076;2023-09-19T14:06:18;1.17;;;0.50;;
15228;SDS011;7717;47.792;12.076;2023-09-19T14:08:43;1.95;;;0.60;;
15228;SDS011;7717;47.792;12.076;2023-09-19T14:11:10;1.23;;;0.70;;
15228;SDS011;7717;47.792;12.076;2023-09-19T14:13:35;1.80;;;0.57;;
15228;SDS011;7717;47.792;12.076;2023-09-19T14:16:04;0.73;;;0.70;;
15228;SDS011;7717;47.792;12.076;2023-09-19T14:18:30;2.65;;;0.85;;
15228;SDS011;7717;47.792;12.076;2023-09-19T14:20:56;1.13;;;1.02;;
15228;SDS011;7717;47.792;12.076;2023-09-19T14:23:21;0.88;;;0.45;;
15228;SDS011;7717;47.792;12.076;2023-09-19T14:25:48;0.85;;;0.60;;
15228;SDS011;7717;47.792;12.076;2023-09-19T14:28:13;0.50;;;0.50;;
15228;SDS011;7717;47.792;12.076;2023-09-19T14:30:39;0.75;;;0.75;;
15228;SDS011;7717;47.792;12.076;2023-09-19T14:33:04;0.40;;;0.40;;
15228;SDS011;7717;47.792;12.076;2023-09-19T14:35:31;1.55;;;0.88;;
15228;SDS011;7717;47.792;12.076;2023-09-19T14:37:56;0.70;;;0.60;;
15228;SDS011;7717;47.792;12.076;2023-09-19T14:40:21;0.70;;;0.70;;
15228;SDS011;7717;47.792;12.076;2023-09-19T14:42:47;0.60;;;0.60;;
15228;SDS011;7717;47.792;12.076;2023-09-19T14:45:13;1.05;;;0.60;;
15228;SDS011;7717;47.792;12.076;2023-09-19T14:47:41;0.70;;;0.60;;
15228;SDS011;7717;47.792;12.076;2023-09-19T14:50:07;1.15;;;1.00;;
15228;SDS011;7717;47.792;12.076;2023-09-19T14:52:32;0.65;;;0.60;;
15228;SDS011;7717;47.792;12.076;2023-09-19T14:54:59;1.50;;;0.63;;
15228;SDS011;7717;47.792;12.076;2023-09-19T14:57:24;1.52;;;0.65;;
15228;SDS011;7717;47.792;12.076;2023-09-19T14:59:51;1.27;;;0.50;;
15228;SDS011;7717;47.792;12.076;2023-09-19T15:02:16;1.40;;;0.65;;
15228;SDS011;7717;47.792;12.076;2023-09-19T15:04:42;0.45;;;0.45;;
15228;SDS011;7717;47.792;12.076;2023-09-19T15:07:09;1.58;;;0.70;;
15228;SDS011;7717;47.792;12.076;2023-09-19T15:09:35;1.40;;;0.65;;
15228;SDS011;7717;47.792;12.076;2023-09-19T15:12:00;2.97;;;0.98;;
15228;SDS011;7717;47.792;12.076;2023-09-19T15:14:26;0.70;;;0.68;;
15228;SDS011;7717;47.792;12.076;2023-09-19T15:16:51;0.50;;;0.50;;
15228;SDS011;7717;47.792;12.076;2023-09-19T15:19:19;0.90;;;0.70;;
15228;SDS011;7717;47.792;12.076;2023-09-19T15:21:44;1.17;;;0.60;;
15228;SDS011;7717;47.792;12.076;2023-09-19T15:24:10;0.40;;;0.40;;
15228;SDS011;7717;47.792;12.076;2023-09-19T15:26:36;0.88;;;0.63;;
15228;SDS011;7717;47.792;12.076;2023-09-19T15:29:04;0.90;;;0.77;;
15228;SDS011;7717;47.792;12.076;2023-09-19T15:31:30;0.60;;;0.50;;
15228;SDS011;7717;47.792;12.076;2023-09-19T15:33:55;0.38;;;0.38;;
15228;SDS011;7717;47.792;12.076;2023-09-19T15:36:20;0.70;;;0.70;;
15228;SDS011;7717;47.792;12.076;2023-09-19T15:41:24;1.73;;;0.70;;
15228;SDS011;7717;47.792;12.076;2023-09-19T15:43:50;0.60;;;0.60;;
15228;SDS011;7717;47.792;12.076;2023-09-19T15:46:15;2.58;;;0.50;;
15228;SDS011;7717;47.792;12.076;2023-09-19T15:48:41;0.63;;;0.50;;